Time;durP1;ratioP1;P1;durP2;ratioP2;P2;SDS_P1;SDS_P2;PMS_P1;PMS_P2;Temp;Humidity;BMP_temperature;BMP_pressure;BME280_temperature;BME280_humidity;BME280_pressure;Samples;Min_cycle;Max_cycle;Signal;HPM_P1;HPM_P2
2021/11/09 00:01:38;;;;;;;10.52;4.15;;;11.50;98.80;;;;;;5070796;28;20033;-70
2021/11/09 00:04:06;;;;;;;13.50;4.00;;;11.50;98.70;;;;;;5070324;28;20044;-69
2021/11/09 00:06:39;;;;;;;10.95;4.10;;;11.50;98.70;;;;;;5055902;28;20052;-71
2021/11/09 00:09:07;;;;;;;12.85;4.18;;;11.40;98.80;;;;;;5050765;28;20029;-70
2021/11/09 00:11:33;;;;;;;11.02;3.42;;;11.40;98.80;;;;;;5050359;28;20067;-70
2021/11/09 00:13:59;;;;;;;12.95;3.95;;;11.30;98.80;;;;;;5050534;28;20458;-71
2021/11/09 00:16:25;;;;;;;11.32;3.58;;;11.40;99.00;;;;;;5059872;28;20032;-71
2021/11/09 00:18:50;;;;;;;9.65;4.35;;;11.30;99.20;;;;;;5070421;28;20032;-70
2021/11/09 00:21:18;;;;;;;11.25;3.50;;;11.40;99.00;;;;;;5067706;28;20113;-70
2021/11/09 00:23:45;;;;;;;9.00;2.88;;;11.40;98.90;;;;;;5070440;28;20082;-70
2021/11/09 00:26:10;;;;;;;11.80;3.47;;;11.40;99.00;;;;;;5069262;28;20024;-70
2021/11/09 00:28:36;;;;;;;11.60;3.20;;;11.50;98.90;;;;;;5070182;28;20029;-70
2021/11/09 00:31:01;;;;;;;9.35;3.13;;;11.50;98.90;;;;;;5068778;28;20031;-70
2021/11/09 00:33:27;;;;;;;12.70;3.65;;;11.50;98.80;;;;;;5070473;28;20033;-70
2021/11/09 00:35:53;;;;;;;13.48;3.97;;;11.60;98.80;;;;;;5070273;28;20032;-69
2021/11/09 00:38:18;;;;;;;11.50;3.38;;;11.40;98.70;;;;;;5070341;28;20029;-70
2021/11/09 00:40:44;;;;;;;10.80;3.85;;;11.30;98.70;;;;;;5069518;28;20037;-70
2021/11/09 00:43:14;;;;;;;13.63;4.20;;;11.40;98.70;;;;;;5070663;28;20491;-70
2021/11/09 00:45:40;;;;;;;11.80;4.00;;;11.40;98.70;;;;;;5061591;28;20339;-70
2021/11/09 00:48:06;;;;;;;12.77;3.58;;;11.30;98.70;;;;;;5070169;28;20117;-70
2021/11/09 00:50:33;;;;;;;14.88;3.83;;;11.30;98.70;;;;;;5066367;28;20029;-70
2021/11/09 00:53:00;;;;;;;10.20;3.45;;;11.30;98.70;;;;;;5050254;28;20033;-70
2021/11/09 00:55:27;;;;;;;15.48;4.00;;;11.30;98.70;;;;;;5050925;28;20052;-74
2021/11/09 00:57:53;;;;;;;17.08;5.18;;;11.30;98.80;;;;;;5070563;28;20035;-71
2021/11/09 01:00:22;;;;;;;10.38;4.22;;;11.40;98.80;;;;;;5069123;28;20029;-70
2021/11/09 01:02:49;;;;;;;13.35;4.30;;;11.30;98.60;;;;;;5068829;28;20342;-70
2021/11/09 01:05:22;;;;;;;15.83;4.17;;;11.50;98.70;;;;;;5069867;28;20041;-70
2021/11/09 01:07:57;;;;;;;11.50;4.05;;;11.50;98.60;;;;;;5062434;28;20052;-70
2021/11/09 01:10:25;;;;;;;13.38;3.63;;;11.50;98.50;;;;;;5049817;28;20025;-70
2021/11/09 01:12:52;;;;;;;11.80;4.05;;;11.50;98.60;;;;;;5050037;28;20432;-70
2021/11/09 01:15:17;;;;;;;9.10;4.38;;;11.50;98.50;;;;;;5050183;28;20035;-71
2021/11/09 01:17:43;;;;;;;12.07;4.70;;;11.50;98.50;;;;;;5050020;28;20033;-71
2021/11/09 01:20:13;;;;;;;12.93;4.50;;;11.50;98.60;;;;;;5049820;28;20332;-70
2021/11/09 01:22:39;;;;;;;17.42;4.88;;;11.50;98.60;;;;;;5049867;28;20441;-70
2021/11/09 01:25:06;;;;;;;15.45;4.55;;;11.50;98.60;;;;;;5050111;28;20025;-70
2021/11/09 01:27:32;;;;;;;14.75;4.32;;;11.50;98.50;;;;;;5051938;28;20696;-70
2021/11/09 01:29:58;;;;;;;12.48;4.63;;;11.50;98.60;;;;;;5053634;28;20025;-70
2021/11/09 01:32:23;;;;;;;18.95;5.50;;;11.50;98.60;;;;;;5053612;28;20075;-70
2021/11/09 01:34:49;;;;;;;10.38;4.75;;;11.50;98.70;;;;;;5052085;28;20033;-71
2021/11/09 01:37:15;;;;;;;11.52;4.72;;;11.50;98.70;;;;;;5054240;28;20037;-70
2021/11/09 01:39:41;;;;;;;11.70;4.70;;;11.50;98.70;;;;;;5073351;28;20036;-71
2021/11/09 01:42:07;;;;;;;13.82;4.47;;;11.50;98.60;;;;;;5073175;28;20025;-71
2021/11/09 01:44:33;;;;;;;12.05;4.28;;;11.50;98.50;;;;;;5073224;28;20090;-70
2021/11/09 01:46:58;;;;;;;12.07;5.15;;;11.30;98.80;;;;;;5065486;28;20035;-70
2021/11/09 01:49:24;;;;;;;11.45;4.88;;;11.30;98.90;;;;;;5073320;28;20362;-71
2021/11/09 01:51:50;;;;;;;10.82;4.82;;;11.40;98.90;;;;;;5073588;28;20035;-70
2021/11/09 01:54:16;;;;;;;11.43;4.88;;;11.40;98.80;;;;;;5072855;28;20727;-69
2021/11/09 01:56:41;;;;;;;16.02;4.75;;;11.40;98.90;;;;;;5067097;28;20135;-69
2021/11/09 01:59:07;;;;;;;16.50;4.50;;;11.40;98.90;;;;;;5053124;28;20028;-70
2021/11/09 02:01:33;;;;;;;13.05;4.53;;;11.40;98.80;;;;;;5072000;28;20029;-70
2021/11/09 02:04:04;;;;;;;11.32;4.53;;;11.40;98.80;;;;;;5073319;28;20085;-70
2021/11/09 02:06:30;;;;;;;8.55;4.18;;;11.50;98.80;;;;;;5072191;28;20078;-70
2021/11/09 02:09:03;;;;;;;9.88;4.65;;;11.50;98.80;;;;;;5073056;28;20037;-71
2021/11/09 02:11:28;;;;;;;15.25;4.47;;;11.50;98.80;;;;;;5072607;28;20052;-70
2021/11/09 02:13:54;;;;;;;11.15;4.85;;;11.50;98.70;;;;;;5071573;28;20032;-71
2021/11/09 02:16:20;;;;;;;12.15;4.40;;;11.50;98.70;;;;;;5071810;28;20143;-71
2021/11/09 02:18:46;;;;;;;17.85;4.82;;;11.40;98.70;;;;;;5073175;28;20485;-69
2021/11/09 02:21:12;;;;;;;13.13;4.57;;;11.40;98.70;;;;;;5072922;28;20032;-70
2021/11/09 02:23:44;;;;;;;12.25;4.53;;;11.30;98.80;;;;;;5072767;28;20119;-70
2021/11/09 02:26:10;;;;;;;11.43;5.10;;;11.30;98.70;;;;;;5071868;28;20028;-71
2021/11/09 02:28:37;;;;;;;15.77;5.93;;;11.20;98.70;;;;;;5052339;28;20060;-70
2021/11/09 02:31:04;;;;;;;18.73;5.50;;;11.20;98.80;;;;;;5052731;28;20021;-70
2021/11/09 02:33:30;;;;;;;11.35;5.05;;;11.20;98.80;;;;;;5051927;28;20048;-70
2021/11/09 02:35:55;;;;;;;13.52;6.22;;;11.20;98.90;;;;;;5051971;28;20037;-70
2021/11/09 02:38:22;;;;;;;15.15;5.25;;;11.10;99.00;;;;;;5051577;28;20033;-70
2021/11/09 02:40:48;;;;;;;16.58;4.85;;;11.20;98.90;;;;;;5051909;28;20029;-70
2021/11/09 02:43:15;;;;;;;13.70;4.90;;;11.10;99.00;;;;;;5052264;28;20092;-70
2021/11/09 02:46:05;;;;;;;14.75;4.68;;;11.10;99.10;;;;;;5051818;28;20107;-70
2021/11/09 02:48:34;;;;;;;12.35;4.43;;;11.10;99.00;;;;;;5051966;28;20056;-70
2021/11/09 02:51:14;;;;;;;11.13;5.43;;;11.00;99.10;;;;;;5052091;28;20037;-70
2021/11/09 02:56:20;;;;;;;14.80;4.60;;;11.10;99.00;;;;;;5052332;28;20029;-71
2021/11/09 03:03:56;;;;;;;9.73;4.07;;;11.20;99.00;;;;;;5051871;28;20029;-70
2021/11/09 03:08:57;;;;;;;11.63;4.40;;;11.10;99.10;;;;;;5051595;28;20040;-70
2021/11/09 03:11:24;;;;;;;12.32;4.18;;;11.10;99.20;;;;;;5051434;28;20116;-69
2021/11/09 03:13:51;;;;;;;11.07;3.47;;;11.20;99.20;;;;;;5051765;28;20124;-70
2021/11/09 03:16:17;;;;;;;11.27;2.87;;;11.20;99.30;;;;;;5051903;28;20048;-70
2021/11/09 03:19:01;;;;;;;10.90;4.20;;;11.10;99.10;;;;;;5051613;28;20743;-70
2021/11/09 03:40:48;;;;;;;9.80;3.67;;;11.20;99.00;;;;;;5071001;28;20480;-70
2021/11/09 03:45:58;;;;;;;9.25;3.80;;;11.10;99.10;;;;;;5070455;28;20051;-70
2021/11/09 03:48:25;;;;;;;8.63;3.42;;;11.10;99.10;;;;;;5066382;28;20422;-70
2021/11/09 03:50:51;;;;;;;5.78;3.08;;;11.20;99.00;;;;;;5068739;28;20036;-70
2021/11/09 03:53:20;;;;;;;8.10;3.53;;;11.20;99.00;;;;;;5070746;28;20043;-71
2021/11/09 03:56:07;;;;;;;11.48;4.03;;;11.10;99.30;;;;;;5070795;28;20028;-71
2021/11/09 03:58:41;;;;;;;11.93;3.88;;;11.20;99.00;;;;;;5054977;28;20508;-71
2021/11/09 04:01:21;;;;;;;8.93;3.58;;;11.20;99.00;;;;;;5059078;28;20105;-70
2021/11/09 04:11:57;;;;;;;8.65;3.40;;;11.20;99.00;;;;;;5070532;28;20059;-71
2021/11/09 04:17:15;;;;;;;10.95;4.13;;;11.20;99.00;;;;;;5050748;28;20486;-70
2021/11/09 04:19:53;;;;;;;10.25;4.15;;;11.20;98.90;;;;;;5050365;28;20033;-70
2021/11/09 04:25:04;;;;;;;14.65;5.07;;;11.10;99.00;;;;;;5064347;28;20024;-72
2021/11/09 04:39:28;;;;;;;18.10;6.20;;;11.10;99.10;;;;;;5050243;28;20032;-71
2021/11/09 04:48:04;;;;;;;14.60;6.15;;;11.20;99.00;;;;;;5050247;28;20117;-71
2021/11/09 04:50:49;;;;;;;14.90;5.80;;;11.20;99.00;;;;;;5049989;28;20073;-70
2021/11/09 05:08:20;;;;;;;15.48;6.78;;;11.10;99.10;;;;;;5073440;28;20366;-69
2021/11/09 05:11:10;;;;;;;21.08;7.38;;;11.10;99.20;;;;;;5074278;28;20052;-69
2021/11/09 05:13:36;;;;;;;15.07;7.57;;;11.10;99.20;;;;;;5073904;28;20098;-71
2021/11/09 05:16:02;;;;;;;16.45;7.05;;;11.10;99.20;;;;;;5070116;28;20047;-70
2021/11/09 05:18:28;;;;;;;17.55;6.88;;;11.00;99.30;;;;;;5073745;28;20031;-70
2021/11/09 05:20:54;;;;;;;18.05;7.57;;;11.10;99.30;;;;;;5073729;28;20028;-69
2021/11/09 05:23:20;;;;;;;16.45;7.63;;;11.10;99.40;;;;;;5073746;28;20131;-70
2021/11/09 05:25:47;;;;;;;16.23;7.22;;;11.10;99.30;;;;;;5067577;28;20119;-70
2021/11/09 05:28:13;;;;;;;18.17;7.97;;;11.10;99.20;;;;;;5054278;28;20025;-70
2021/11/09 05:30:42;;;;;;;21.00;7.47;;;11.10;99.10;;;;;;5053866;28;20116;-70
2021/11/09 05:33:07;;;;;;;22.17;8.60;;;11.10;99.10;;;;;;5053707;28;20033;-70
2021/11/09 05:35:34;;;;;;;17.48;7.63;;;11.10;99.20;;;;;;5057181;28;20094;-70
2021/11/09 05:38:01;;;;;;;19.08;8.02;;;11.20;99.20;;;;;;5073718;28;20486;-69
2021/11/09 05:40:33;;;;;;;17.83;8.00;;;11.20;99.10;;;;;;5073863;28;20025;-70
2021/11/09 05:43:00;;;;;;;18.52;7.20;;;11.20;99.10;;;;;;5073938;28;20028;-69
2021/11/09 05:45:27;;;;;;;19.58;7.72;;;11.10;99.20;;;;;;5072721;28;20625;-70
2021/11/09 05:47:52;;;;;;;23.20;8.07;;;11.10;99.10;;;;;;5073214;28;20036;-69
2021/11/09 05:50:20;;;;;;;16.30;7.93;;;11.10;99.20;;;;;;5073109;28;20043;-69
2021/11/09 05:52:46;;;;;;;16.83;7.18;;;11.10;99.10;;;;;;5073234;28;20040;-70
2021/11/09 05:55:11;;;;;;;18.65;7.57;;;11.10;99.20;;;;;;5073474;28;20017;-71
2021/11/09 05:57:37;;;;;;;16.67;7.85;;;11.10;99.10;;;;;;5062157;28;20036;-71
2021/11/09 06:00:05;;;;;;;23.63;8.18;;;11.10;99.20;;;;;;5073237;28;20028;-71
2021/11/09 06:02:30;;;;;;;23.30;8.13;;;11.10;99.10;;;;;;5073199;28;20716;-71
2021/11/09 06:04:56;;;;;;;21.30;8.68;;;11.10;99.10;;;;;;5064869;28;20124;-71
2021/11/09 06:07:22;;;;;;;27.05;8.82;;;11.00;99.20;;;;;;5066349;28;20495;-71
2021/11/09 06:09:47;;;;;;;18.45;8.85;;;11.00;99.20;;;;;;5066327;28;20147;-71
2021/11/09 06:12:13;;;;;;;25.00;9.52;;;11.10;99.10;;;;;;5054107;28;20116;-71
2021/11/09 06:14:39;;;;;;;22.95;9.00;;;11.10;99.10;;;;;;5050815;28;20069;-70
2021/11/09 06:17:04;;;;;;;25.73;10.10;;;11.10;99.20;;;;;;5052769;28;20374;-69
2021/11/09 06:19:30;;;;;;;28.92;11.27;;;11.10;99.10;;;;;;5056246;28;20427;-70
2021/11/09 06:21:55;;;;;;;27.90;10.88;;;11.10;99.20;;;;;;5071491;28;20036;-70
2021/11/09 06:24:23;;;;;;;27.83;11.20;;;11.10;99.10;;;;;;5072302;28;20033;-70
2021/11/09 06:26:49;;;;;;;31.85;11.65;;;11.10;99.20;;;;;;5056611;28;20025;-71
2021/11/09 06:29:15;;;;;;;30.25;11.82;;;11.20;99.10;;;;;;5055370;28;20020;-70
2021/11/09 06:31:41;;;;;;;25.52;11.02;;;11.10;99.10;;;;;;5072881;28;20052;-70
2021/11/09 06:34:07;;;;;;;33.67;11.93;;;11.10;99.20;;;;;;5072126;28;20154;-70
2021/11/09 06:36:33;;;;;;;35.95;13.07;;;11.10;99.30;;;;;;5072400;28;20029;-72
2021/11/09 06:38:59;;;;;;;29.67;12.45;;;11.20;99.30;;;;;;5071567;28;20029;-70
2021/11/09 06:41:24;;;;;;;35.00;14.75;;;11.20;99.30;;;;;;5067708;28;20630;-70
2021/11/09 06:43:50;;;;;;;46.33;19.70;;;11.10;99.10;;;;;;5052133;28;20105;-72
2021/11/09 06:46:16;;;;;;;34.35;14.85;;;11.20;99.20;;;;;;5052120;28;20036;-70
2021/11/09 06:48:44;;;;;;;29.48;13.15;;;11.10;99.20;;;;;;5060163;28;20036;-71
2021/11/09 06:51:10;;;;;;;28.63;12.95;;;11.20;99.10;;;;;;5063633;28;20036;-70
2021/11/09 06:53:35;;;;;;;28.73;12.55;;;11.20;99.00;;;;;;5051021;28;20029;-70
2021/11/09 06:56:01;;;;;;;31.90;13.95;;;11.20;99.20;;;;;;5050905;28;20029;-70
2021/11/09 06:58:27;;;;;;;36.03;13.82;;;11.10;99.10;;;;;;5050644;28;20044;-70
2021/11/09 07:00:52;;;;;;;29.20;13.13;;;11.20;99.10;;;;;;5051077;28;20329;-70
2021/11/09 07:03:19;;;;;;;33.53;14.00;;;11.20;99.10;;;;;;5050139;28;20029;-71
2021/11/09 07:05:44;;;;;;;32.35;13.57;;;11.20;99.10;;;;;;5050709;28;20125;-69
2021/11/09 07:08:10;;;;;;;28.58;13.75;;;11.20;99.00;;;;;;5049641;28;20025;-70
2021/11/09 07:10:36;;;;;;;36.78;14.65;;;11.20;99.10;;;;;;5050712;28;20032;-71
2021/11/09 07:13:01;;;;;;;26.95;13.30;;;11.20;99.10;;;;;;5050839;28;20044;-70
2021/11/09 07:15:27;;;;;;;40.30;13.95;;;11.30;99.10;;;;;;5065739;28;20055;-70
2021/11/09 07:17:53;;;;;;;34.20;14.57;;;11.20;99.00;;;;;;5050461;28;20116;-71
2021/11/09 07:20:20;;;;;;;35.05;15.02;;;11.20;99.00;;;;;;5050375;28;20394;-71
2021/11/09 07:22:47;;;;;;;34.88;14.93;;;11.20;99.00;;;;;;5050566;28;20025;-70
2021/11/09 07:25:14;;;;;;;40.38;15.90;;;11.40;99.10;;;;;;5050758;28;20040;-70
2021/11/09 07:27:41;;;;;;;45.13;16.67;;;11.40;98.90;;;;;;5050390;28;20021;-70
2021/11/09 07:30:09;;;;;;;34.83;15.43;;;11.30;98.90;;;;;;5048866;28;20163;-71
2021/11/09 07:32:35;;;;;;;;;;;11.30;99.00;;;;;;5051003;28;20029;-71
2021/11/09 07:35:01;;;;;;;35.60;15.43;;;11.40;99.00;;;;;;5048795;28;20313;-70
2021/11/09 07:37:28;;;;;;;41.30;16.88;;;11.40;99.30;;;;;;5050484;28;20032;-71
2021/11/09 07:39:54;;;;;;;34.08;15.10;;;11.50;99.00;;;;;;5050304;28;20518;-71
2021/11/09 07:42:20;;;;;;;35.92;16.20;;;11.50;98.80;;;;;;5050277;28;20116;-71
2021/11/09 07:44:47;;;;;;;39.25;17.13;;;11.50;98.80;;;;;;5049776;28;20094;-72
2021/11/09 07:47:13;;;;;;;43.33;16.10;;;11.60;98.70;;;;;;5049744;28;20091;-70
2021/11/09 07:49:38;;;;;;;33.80;15.68;;;11.60;98.80;;;;;;5049959;28;20033;-70
2021/11/09 07:52:05;;;;;;;33.85;16.48;;;11.60;99.00;;;;;;5050019;28;20025;-71
2021/11/09 07:54:34;;;;;;;46.78;17.15;;;11.70;98.80;;;;;;5049513;28;20036;-71
2021/11/09 07:57:12;;;;;;;44.38;16.70;;;11.70;98.50;;;;;;5049864;28;20669;-70
2021/11/09 08:02:07;;;;;;;40.05;17.40;;;11.70;98.40;;;;;;5050099;28;20458;-70
2021/11/09 08:07:50;;;;;;;48.53;18.05;;;11.70;98.20;;;;;;5047587;28;20091;-71
2021/11/09 08:10:16;;;;;;;45.45;18.30;;;11.70;98.30;;;;;;5047825;28;20025;-71
2021/11/09 08:12:41;;;;;;;43.25;18.63;;;11.70;98.10;;;;;;5048432;28;20071;-70
2021/11/09 08:15:08;;;;;;;54.90;20.42;;;11.90;98.10;;;;;;5049509;28;20049;-70
2021/11/09 08:17:33;;;;;;;47.80;17.83;;;12.00;98.00;;;;;;5049989;28;20037;-70
2021/11/09 08:19:59;;;;;;;43.80;17.95;;;12.10;97.60;;;;;;5049640;28;20033;-70
2021/11/09 08:22:24;;;;;;;51.47;19.73;;;12.10;97.40;;;;;;5049438;28;20059;-71
2021/11/09 08:24:50;;;;;;;46.70;17.85;;;12.30;97.10;;;;;;5050032;28;20070;-71
2021/11/09 08:27:16;;;;;;;40.03;17.60;;;12.30;97.20;;;;;;5049659;28;20028;-71
2021/11/09 08:29:49;;;;;;;46.60;18.15;;;12.50;97.00;;;;;;5049534;28;20021;-70
2021/11/09 08:32:14;;;;;;;44.97;18.35;;;12.50;96.80;;;;;;5049712;28;20029;-71
2021/11/09 08:34:40;;;;;;;42.60;17.33;;;12.50;96.50;;;;;;5049430;28;20039;-70
2021/11/09 08:37:06;;;;;;;54.13;21.85;;;12.60;96.60;;;;;;5049500;28;20032;-71
2021/11/09 08:39:37;;;;;;;42.95;16.67;;;12.70;96.60;;;;;;5049551;28;20025;-71
2021/11/09 08:44:40;;;;;;;49.33;17.60;;;12.70;96.30;;;;;;5049605;28;20057;-70
2021/11/09 08:47:06;;;;;;;41.03;15.02;;;12.70;96.10;;;;;;5048402;28;20454;-69
2021/11/09 08:49:32;;;;;;;43.63;15.57;;;12.70;96.00;;;;;;5049441;28;20380;-70
2021/11/09 08:52:02;;;;;;;41.05;14.60;;;12.60;95.70;;;;;;5049538;28;20017;-70
2021/11/09 08:54:35;;;;;;;39.15;16.13;;;12.60;96.00;;;;;;5049225;28;20060;-70
2021/11/09 08:57:44;;;;;;;34.90;14.38;;;12.70;95.90;;;;;;5049266;28;20040;-71
2021/11/09 09:05:36;;;;;;;46.15;15.20;;;12.50;95.30;;;;;;5049524;28;20040;-70
2021/11/09 09:08:02;;;;;;;41.28;14.63;;;12.50;95.40;;;;;;5049046;28;20026;-70
2021/11/09 09:10:27;;;;;;;43.05;14.70;;;12.50;95.60;;;;;;5049173;28;20017;-71
2021/11/09 09:12:53;;;;;;;45.10;16.13;;;12.60;95.70;;;;;;5049106;28;20114;-70
2021/11/09 09:15:20;;;;;;;43.72;15.48;;;12.60;95.70;;;;;;5048920;28;20462;-70
2021/11/09 09:17:46;;;;;;;46.88;14.32;;;12.60;95.60;;;;;;5049118;28;20094;-70
2021/11/09 09:20:23;;;;;;;54.72;15.38;;;12.70;95.60;;;;;;5047805;28;20402;-70
2021/11/09 09:23:05;;;;;;;50.23;15.40;;;12.70;95.50;;;;;;5049214;28;20437;-71
2021/11/09 09:55:39;;;;;;;33.45;8.82;;;13.00;93.60;;;;;;5052489;28;20021;-70
2021/11/09 09:58:13;;;;;;;31.70;8.80;;;13.00;93.80;;;;;;5052391;28;20299;-70
2021/11/09 10:00:41;;;;;;;33.25;8.25;;;13.00;93.20;;;;;;5052251;28;20097;-70
2021/11/09 10:03:07;;;;;;;;;;;13.00;92.70;;;;;;5052458;28;20025;-69
2021/11/09 10:05:37;;;;;;;22.02;7.38;;;13.10;92.30;;;;;;5052275;28;19909;-69
2021/11/09 10:08:10;;;;;;;29.15;8.15;;;13.10;92.60;;;;;;5051777;28;20542;-70
2021/11/09 10:10:36;;;;;;;34.78;9.18;;;13.20;92.70;;;;;;5052030;28;20024;-69
2021/11/09 10:13:03;;;;;;;31.92;8.50;;;13.30;92.80;;;;;;5052149;28;20041;-71
2021/11/09 10:15:33;;;;;;;29.15;8.05;;;13.30;92.70;;;;;;5051115;28;20514;-70
2021/11/09 10:18:11;;;;;;;29.20;7.82;;;13.40;92.40;;;;;;5052291;28;20033;-71
2021/11/09 10:20:54;;;;;;;22.95;6.90;;;13.70;92.50;;;;;;5051735;28;20136;-70
2021/11/09 10:23:23;;;;;;;31.95;6.93;;;14.40;92.20;;;;;;5051851;28;20056;-71
2021/11/09 10:25:59;;;;;;;27.85;7.45;;;15.50;91.70;;;;;;5052077;28;20059;-70
2021/11/09 10:28:26;;;;;;;18.23;7.10;;;16.10;90.00;;;;;;5052084;28;20040;-71
2021/11/09 10:30:56;;;;;;;27.23;6.90;;;17.00;87.60;;;;;;5051238;28;20466;-71
2021/11/09 10:33:25;;;;;;;23.27;7.15;;;17.90;87.90;;;;;;5051560;28;20274;-71
2021/11/09 10:35:52;;;;;;;22.35;6.50;;;18.90;84.20;;;;;;5051779;28;20045;-71
2021/11/09 10:38:25;;;;;;;27.67;6.47;;;19.50;81.90;;;;;;5051513;28;20115;-71
2021/11/09 10:40:51;;;;;;;25.33;6.75;;;19.90;79.60;;;;;;5051529;28;20061;-70
2021/11/09 10:43:22;;;;;;;30.55;7.05;;;20.10;77.60;;;;;;5051845;28;20718;-71
2021/11/09 10:45:48;;;;;;;24.95;6.13;;;20.70;76.80;;;;;;5051755;28;20105;-70
2021/11/09 10:48:20;;;;;;;23.65;6.78;;;20.90;74.20;;;;;;5050393;28;20056;-71
2021/11/09 10:50:50;;;;;;;32.88;8.30;;;21.10;73.70;;;;;;5050351;28;20040;-71
2021/11/09 10:55:57;;;;;;;27.42;7.20;;;21.70;72.90;;;;;;5051744;28;20025;-71
2021/11/09 10:58:40;;;;;;;22.67;6.93;;;21.80;72.00;;;;;;5050231;28;20059;-71
2021/11/09 11:06:33;;;;;;;21.55;6.50;;;22.50;68.10;;;;;;5051291;28;20036;-71
2021/11/09 11:09:11;;;;;;;20.67;6.35;;;22.20;67.30;;;;;;5051079;28;20029;-71
2021/11/09 11:11:38;;;;;;;;;;;22.30;67.80;;;;;;5051562;28;20048;-71
2021/11/09 11:14:11;;;;;;;20.23;5.70;;;22.50;67.00;;;;;;5051065;28;19974;-71
2021/11/09 11:16:45;;;;;;;20.20;5.45;;;22.30;66.10;;;;;;5051028;28;20028;-71
2021/11/09 11:19:19;;;;;;;16.25;5.82;;;22.40;67.10;;;;;;5051286;28;20029;-71
2021/11/09 11:21:47;;;;;;;21.98;7.22;;;22.70;67.30;;;;;;5050795;28;20029;-70
2021/11/09 11:24:14;;;;;;;26.40;7.07;;;22.40;65.80;;;;;;5066240;28;20025;-71
2021/11/09 11:26:41;;;;;;;19.80;5.30;;;22.20;65.00;;;;;;5050440;28;20140;-70
2021/11/09 11:29:07;;;;;;;21.90;5.60;;;21.80;63.90;;;;;;5050924;28;20098;-70
2021/11/09 11:31:33;;;;;;;18.95;5.03;;;21.80;66.80;;;;;;5050724;28;20017;-70
2021/11/09 11:33:59;;;;;;;19.10;5.60;;;21.70;65.20;;;;;;5051243;28;20021;-70
2021/11/09 11:36:25;;;;;;;18.70;6.07;;;21.40;65.10;;;;;;5050487;28;20114;-71
2021/11/09 11:38:55;;;;;;;20.90;6.18;;;20.90;66.80;;;;;;5050675;28;20467;-70
2021/11/09 11:41:27;;;;;;;18.02;4.78;;;20.60;67.20;;;;;;5066009;28;20032;-70
2021/11/09 11:43:55;;;;;;;20.90;5.25;;;20.30;67.30;;;;;;5066025;28;20175;-70
2021/11/09 11:46:33;;;;;;;;;;;19.80;67.20;;;;;;5050987;28;20060;-70
2021/11/09 11:49:00;;;;;;;21.52;5.47;;;19.60;68.90;;;;;;5050752;28;19912;-71
2021/11/09 11:51:27;;;;;;;25.08;8.27;;;19.20;69.40;;;;;;5049946;28;20048;-70
2021/11/09 11:53:54;;;;;;;13.70;5.23;;;19.00;70.20;;;;;;5050155;28;20094;-70
2021/11/09 11:56:21;;;;;;;17.38;4.63;;;18.70;71.00;;;;;;5050088;28;20258;-70
2021/11/09 11:58:47;;;;;;;23.07;6.53;;;18.50;71.10;;;;;;5049876;28;20075;-72
2021/11/09 12:01:34;;;;;;;17.85;4.63;;;18.40;72.00;;;;;;5050294;28;20419;-70
2021/11/09 12:03:59;;;;;;;12.35;4.70;;;18.30;69.70;;;;;;5050036;28;20040;-70
2021/11/09 12:06:27;;;;;;;6.30;2.67;;;18.30;68.50;;;;;;5049766;28;20029;-69
2021/11/09 12:08:55;;;;;;;11.48;2.50;;;18.20;66.50;;;;;;5049865;28;20029;-69
2021/11/09 12:11:23;;;;;;;;;;;18.00;66.10;;;;;;5049339;28;20168;-69
2021/11/09 12:14:06;;;;;;;10.25;2.33;;;17.90;65.90;;;;;;5049424;28;19981;-69
2021/11/09 12:16:58;;;;;;;9.23;2.80;;;17.80;65.80;;;;;;5050036;28;20182;-69
2021/11/09 12:19:36;;;;;;;8.02;2.92;;;17.80;66.10;;;;;;5049632;28;20036;-70
2021/11/09 12:22:13;;;;;;;10.68;2.50;;;17.50;66.00;;;;;;5050132;28;20040;-70
2021/11/09 12:24:58;;;;;;;5.60;1.92;;;17.50;66.00;;;;;;5049733;28;20025;-69
2021/11/09 12:27:44;;;;;;;5.10;2.08;;;17.50;65.40;;;;;;5049548;28;20316;-69
2021/11/09 12:30:09;;;;;;;8.07;2.20;;;17.30;65.70;;;;;;5049629;28;20036;-70
2021/11/09 12:32:38;;;;;;;7.53;1.95;;;17.10;65.80;;;;;;5049609;28;20154;-69
2021/11/09 12:35:03;;;;;;;6.35;2.55;;;17.10;66.70;;;;;;5049567;28;20041;-69
2021/11/09 12:37:57;;;;;;;12.35;2.42;;;17.00;66.10;;;;;;5049428;28;20490;-70
2021/11/09 12:40:33;;;;;;;6.82;2.80;;;16.80;67.00;;;;;;5049440;28;20106;-71
2021/11/09 12:43:17;;;;;;;3.83;2.08;;;16.70;66.90;;;;;;5049961;28;20027;-70
2021/11/09 12:45:48;;;;;;;7.00;2.40;;;16.70;67.40;;;;;;5048388;28;20036;-70
2021/11/09 12:48:21;;;;;;;10.25;3.22;;;16.80;67.50;;;;;;5049549;28;20033;-69
2021/11/09 12:50:49;;;;;;;12.95;3.30;;;16.70;67.20;;;;;;5049414;28;20044;-70
2021/11/09 12:53:18;;;;;;;10.75;2.80;;;16.80;67.50;;;;;;5049604;28;20229;-69
2021/11/09 12:55:58;;;;;;;11.80;2.75;;;16.70;68.00;;;;;;5049247;28;20036;-69
2021/11/09 12:58:26;;;;;;;9.38;3.20;;;16.50;68.20;;;;;;5049463;28;20028;-69
2021/11/09 13:09:33;;;;;;;11.57;2.35;;;16.20;69.30;;;;;;5049520;28;20061;-69
2021/11/09 13:12:21;;;;;;;6.22;2.05;;;16.20;69.70;;;;;;5049278;28;20403;-69
2021/11/09 13:14:51;;;;;;;;;;;16.20;69.10;;;;;;5049883;28;20052;-70
2021/11/09 13:17:21;;;;;;;7.72;2.45;;;16.20;69.40;;;;;;5065055;28;19913;-69
2021/11/09 13:19:59;;;;;;;9.05;2.28;;;16.30;69.40;;;;;;5049350;28;20041;-69
2021/11/09 13:22:29;;;;;;;;;;;16.30;69.20;;;;;;5050097;28;20079;-70
2021/11/09 13:25:08;;;;;;;5.88;2.13;;;16.40;69.50;;;;;;5053432;28;19905;-70
2021/11/09 13:27:37;;;;;;;8.60;2.10;;;16.10;68.90;;;;;;5068390;28;20086;-69
2021/11/09 13:30:29;;;;;;;8.95;2.22;;;16.10;69.80;;;;;;5053177;28;20036;-70
2021/11/09 13:32:58;;;;;;;10.63;2.28;;;16.10;69.80;;;;;;5051152;28;20366;-70
2021/11/09 13:35:45;;;;;;;12.20;2.60;;;16.10;70.50;;;;;;5053105;28;20467;-69
2021/11/09 13:38:13;;;;;;;5.87;2.23;;;16.00;70.40;;;;;;5053117;28;20059;-69
2021/11/09 13:40:43;;;;;;;4.95;2.33;;;16.00;70.80;;;;;;5052730;28;20738;-69
2021/11/09 13:43:12;;;;;;;7.25;2.30;;;15.90;71.30;;;;;;5053085;28;20455;-69
2021/11/09 13:45:39;;;;;;;11.25;3.85;;;16.00;71.40;;;;;;5052746;28;20098;-69
2021/11/09 13:48:17;;;;;;;12.68;5.68;;;15.80;71.50;;;;;;5052674;28;20190;-69
2021/11/09 13:50:44;;;;;;;9.15;2.17;;;16.00;71.80;;;;;;5052798;28;20102;-69
2021/11/09 13:53:11;;;;;;;5.85;2.17;;;15.90;72.10;;;;;;5052356;28;20017;-70
2021/11/09 13:55:39;;;;;;;8.80;2.28;;;15.80;71.50;;;;;;5052490;28;20040;-70
2021/11/09 13:58:05;;;;;;;7.18;1.80;;;15.70;71.30;;;;;;5052858;28;20017;-70
2021/11/09 14:00:36;;;;;;;10.52;1.77;;;15.70;71.70;;;;;;5051547;28;20655;-70
2021/11/09 14:03:25;;;;;;;5.63;2.30;;;15.70;71.70;;;;;;5052496;28;20462;-69
2021/11/09 14:11:35;;;;;;;7.45;1.80;;;15.30;72.20;;;;;;5052346;28;20064;-69
2021/11/09 14:14:21;;;;;;;4.90;1.40;;;15.30;72.30;;;;;;5052376;28;20048;-69
2021/11/09 14:16:53;;;;;;;10.82;1.80;;;15.30;72.50;;;;;;5052400;28;20491;-70
2021/11/09 14:19:33;;;;;;;6.95;1.40;;;15.20;72.30;;;;;;5052089;28;20305;-70
2021/11/09 14:22:12;;;;;;;5.55;1.48;;;15.20;72.60;;;;;;5052734;28;20029;-70
2021/11/09 14:24:39;;;;;;;5.95;1.52;;;15.10;72.40;;;;;;5052132;28;20052;-70
2021/11/09 14:27:14;;;;;;;6.93;2.20;;;15.10;72.50;;;;;;5051763;28;20033;-70
2021/11/09 14:29:50;;;;;;;6.60;2.60;;;15.10;72.50;;;;;;5051577;28;20044;-70
2021/11/09 14:32:23;;;;;;;3.85;1.50;;;15.00;72.00;;;;;;5051861;28;20029;-69
2021/11/09 14:35:14;;;;;;;6.22;1.65;;;14.90;72.00;;;;;;5051002;28;20389;-70
2021/11/09 14:37:56;;;;;;;4.90;1.70;;;14.90;72.20;;;;;;5051676;28;20112;-69
2021/11/09 14:40:52;;;;;;;6.32;1.75;;;14.80;72.70;;;;;;5051323;28;20470;-69
2021/11/09 14:43:24;;;;;;;2.88;1.20;;;14.70;73.00;;;;;;5051599;28;20036;-70
2021/11/09 14:46:05;;;;;;;9.98;2.08;;;14.70;72.80;;;;;;5051603;28;20028;-70
2021/11/09 14:48:51;;;;;;;5.47;1.80;;;14.70;73.00;;;;;;5051508;28;20045;-68
2021/11/09 14:56:28;;;;;;;7.72;2.17;;;14.60;73.70;;;;;;5051924;28;20035;-70
2021/11/09 14:58:57;;;;;;;4.68;2.13;;;14.50;73.70;;;;;;5051479;28;20041;-70
2021/11/09 15:01:28;;;;;;;10.93;2.20;;;14.50;74.00;;;;;;5051418;28;20028;-70
2021/11/09 15:04:03;;;;;;;4.72;1.83;;;14.40;74.20;;;;;;5051911;28;20017;-69
2021/11/09 15:09:15;;;;;;;5.05;2.25;;;14.30;74.40;;;;;;5051569;28;20025;-70
2021/11/09 15:11:55;;;;;;;9.02;2.20;;;14.30;74.60;;;;;;5050893;28;20478;-69
2021/11/09 15:25:43;;;;;;;9.13;2.95;;;14.10;75.90;;;;;;5050731;28;20023;-70
2021/11/09 15:28:35;;;;;;;8.55;2.40;;;14.10;76.10;;;;;;5066828;28;20024;-70
2021/11/09 15:31:01;;;;;;;9.23;2.60;;;14.00;76.30;;;;;;5050310;28;20370;-70
2021/11/09 15:33:29;;;;;;;8.40;2.72;;;14.00;76.70;;;;;;5052119;28;20641;-70
2021/11/09 15:36:14;;;;;;;10.00;2.83;;;14.00;76.70;;;;;;5065716;28;20041;-70